sensor_id;sensor_type;location;lat;lon;timestamp;temperature;humidity
10276;DHT22;5183;51.190;6.820;2023-04-01T00:00:23;9.90;1.00
10276;DHT22;5183;51.190;6.820;2023-04-01T00:02:50;9.90;1.00
10276;DHT22;5183;51.190;6.820;2023-04-01T00:05:17;9.80;1.00
10276;DHT22;5183;51.190;6.820;2023-04-01T00:07:44;9.80;1.00
10276;DHT22;5183;51.190;6.820;2023-04-01T00:10:13;9.80;1.00
10276;DHT22;5183;51.190;6.820;2023-04-01T00:12:40;9.90;1.00
10276;DHT22;5183;51.190;6.820;2023-04-01T00:15:11;9.80;1.00
10276;DHT22;5183;51.190;6.820;2023-04-01T00:17:38;9.80;1.00
10276;DHT22;5183;51.190;6.820;2023-04-01T00:20:06;9.80;1.00
10276;DHT22;5183;51.190;6.820;2023-04-01T00:22:35;9.80;1.00
10276;DHT22;5183;51.190;6.820;2023-04-01T00:25:02;9.90;1.00
10276;DHT22;5183;51.190;6.820;2023-04-01T00:27:29;9.90;1.00
10276;DHT22;5183;51.190;6.820;2023-04-01T00:29:56;9.90;1.00
10276;DHT22;5183;51.190;6.820;2023-04-01T00:32:25;9.90;1.00
10276;DHT22;5183;51.190;6.820;2023-04-01T00:34:52;10.00;1.00
10276;DHT22;5183;51.190;6.820;2023-04-01T00:37:19;9.90;1.00
10276;DHT22;5183;51.190;6.820;2023-04-01T00:39:47;9.90;1.00
10276;DHT22;5183;51.190;6.820;2023-04-01T00:42:14;9.90;1.00
10276;DHT22;5183;51.190;6.820;2023-04-01T00:44:42;9.90;99.90
10276;DHT22;5183;51.190;6.820;2023-04-01T00:47:11;9.90;99.90
10276;DHT22;5183;51.190;6.820;2023-04-01T00:49:41;9.90;99.90
10276;DHT22;5183;51.190;6.820;2023-04-01T00:52:12;9.90;99.90
10276;DHT22;5183;51.190;6.820;2023-04-01T00:54:42;9.90;99.90
10276;DHT22;5183;51.190;6.820;2023-04-01T00:57:12;9.90;99.90
10276;DHT22;5183;51.190;6.820;2023-04-01T00:59:43;9.90;99.90
10276;DHT22;5183;51.190;6.820;2023-04-01T01:02:12;9.90;99.90
10276;DHT22;5183;51.190;6.820;2023-04-01T01:04:41;9.90;99.90
10276;DHT22;5183;51.190;6.820;2023-04-01T01:07:16;9.90;99.90
10276;DHT22;5183;51.190;6.820;2023-04-01T01:09:52;9.90;99.90
10276;DHT22;5183;51.190;6.820;2023-04-01T01:12:24;9.90;99.90
10276;DHT22;5183;51.190;6.820;2023-04-01T01:15:02;9.90;99.90
10276;DHT22;5183;51.190;6.820;2023-04-01T01:17:48;9.90;99.90
10276;DHT22;5183;51.190;6.820;2023-04-01T01:26:30;10.00;99.90
10276;DHT22;5183;51.190;6.820;2023-04-01T01:29:08;9.90;1.00
10276;DHT22;5183;51.190;6.820;2023-04-01T01:31:45;9.90;1.00
10276;DHT22;5183;51.190;6.820;2023-04-01T01:34:21;9.80;1.00
10276;DHT22;5183;51.190;6.820;2023-04-01T01:36:53;9.80;1.00
10276;DHT22;5183;51.190;6.820;2023-04-01T01:39:23;9.80;1.00
10276;DHT22;5183;51.190;6.820;2023-04-01T01:41:54;9.80;1.00
10276;DHT22;5183;51.190;6.820;2023-04-01T01:44:22;9.70;1.00
10276;DHT22;5183;51.190;6.820;2023-04-01T01:46:50;9.70;1.00
10276;DHT22;5183;51.190;6.820;2023-04-01T01:49:18;9.70;1.00
10276;DHT22;5183;51.190;6.820;2023-04-01T01:51:45;9.80;1.00
10276;DHT22;5183;51.190;6.820;2023-04-01T01:54:15;9.80;1.00
10276;DHT22;5183;51.190;6.820;2023-04-01T01:56:45;9.80;1.00
10276;DHT22;5183;51.190;6.820;2023-04-01T01:59:14;9.70;1.00
10276;DHT22;5183;51.190;6.820;2023-04-01T02:01:43;9.80;1.00
10276;DHT22;5183;51.190;6.820;2023-04-01T02:04:13;9.70;1.00
10276;DHT22;5183;51.190;6.820;2023-04-01T02:06:44;9.80;1.00
10276;DHT22;5183;51.190;6.820;2023-04-01T02:09:12;9.70;1.00
10276;DHT22;5183;51.190;6.820;2023-04-01T02:11:43;9.60;1.00
10276;DHT22;5183;51.190;6.820;2023-04-01T02:14:14;9.60;1.00
10276;DHT22;5183;51.190;6.820;2023-04-01T02:16:47;9.60;4.70
10276;DHT22;5183;51.190;6.820;2023-04-01T02:19:17;9.60;1.00
10276;DHT22;5183;51.190;6.820;2023-04-01T02:21:49;9.60;9.10
10276;DHT22;5183;51.190;6.820;2023-04-01T02:24:18;9.60;83.60
10276;DHT22;5183;51.190;6.820;2023-04-01T02:26:50;9.60;90.50
10276;DHT22;5183;51.190;6.820;2023-04-01T02:29:19;9.60;99.90
10276;DHT22;5183;51.190;6.820;2023-04-01T02:31:47;9.50;99.90
10276;DHT22;5183;51.190;6.820;2023-04-01T02:34:15;9.50;99.90
10276;DHT22;5183;51.190;6.820;2023-04-01T02:36:42;9.50;99.90
10276;DHT22;5183;51.190;6.820;2023-04-01T02:39:10;9.50;99.90
10276;DHT22;5183;51.190;6.820;2023-04-01T02:41:40;9.40;99.90
10276;DHT22;5183;51.190;6.820;2023-04-01T02:44:09;9.40;99.90
10276;DHT22;5183;51.190;6.820;2023-04-01T02:46:36;9.40;99.90
10276;DHT22;5183;51.190;6.820;2023-04-01T02:49:03;9.30;99.90
10276;DHT22;5183;51.190;6.820;2023-04-01T02:51:30;9.30;99.90
10276;DHT22;5183;51.190;6.820;2023-04-01T02:53:57;9.20;99.90
10276;DHT22;5183;51.190;6.820;2023-04-01T02:56:24;9.20;99.90
10276;DHT22;5183;51.190;6.820;2023-04-01T02:58:51;9.20;99.90
10276;DHT22;5183;51.190;6.820;2023-04-01T03:01:20;9.30;99.90
10276;DHT22;5183;51.190;6.820;2023-04-01T03:03:47;9.30;99.90
10276;DHT22;5183;51.190;6.820;2023-04-01T03:06:15;9.20;99.90
10276;DHT22;5183;51.190;6.820;2023-04-01T03:08:43;9.20;99.90
10276;DHT22;5183;51.190;6.820;2023-04-01T03:11:10;9.20;99.90
10276;DHT22;5183;51.190;6.820;2023-04-01T03:13:37;9.20;99.90
10276;DHT22;5183;51.190;6.820;2023-04-01T03:16:04;9.20;99.90
10276;DHT22;5183;51.190;6.820;2023-04-01T03:18:33;9.20;99.90
10276;DHT22;5183;51.190;6.820;2023-04-01T03:21:13;9.20;99.90
10276;DHT22;5183;51.190;6.820;2023-04-01T03:23:39;9.20;99.90
10276;DHT22;5183;51.190;6.820;2023-04-01T03:26:06;9.20;99.90
10276;DHT22;5183;51.190;6.820;2023-04-01T03:28:33;9.20;99.90
10276;DHT22;5183;51.190;6.820;2023-04-01T03:31:00;9.20;99.90
10276;DHT22;5183;51.190;6.820;2023-04-01T03:33:27;9.20;99.90
10276;DHT22;5183;51.190;6.820;2023-04-01T03:35:55;9.20;99.90
10276;DHT22;5183;51.190;6.820;2023-04-01T03:38:22;9.20;99.90
10276;DHT22;5183;51.190;6.820;2023-04-01T03:40:49;9.20;99.90
10276;DHT22;5183;51.190;6.820;2023-04-01T03:43:16;9.20;99.90
10276;DHT22;5183;51.190;6.820;2023-04-01T03:45:46;9.20;99.90
10276;DHT22;5183;51.190;6.820;2023-04-01T03:48:14;9.30;99.90
10276;DHT22;5183;51.190;6.820;2023-04-01T03:50:41;9.20;99.90
10276;DHT22;5183;51.190;6.820;2023-04-01T03:53:10;9.30;99.90
10276;DHT22;5183;51.190;6.820;2023-04-01T03:55:37;9.20;99.90
10276;DHT22;5183;51.190;6.820;2023-04-01T03:58:04;9.30;99.90
10276;DHT22;5183;51.190;6.820;2023-04-01T04:00:31;9.20;99.90
10276;DHT22;5183;51.190;6.820;2023-04-01T04:02:58;9.20;99.90
10276;DHT22;5183;51.190;6.820;2023-04-01T04:05:26;9.20;99.90
10276;DHT22;5183;51.190;6.820;2023-04-01T04:07:54;9.20;99.90
10276;DHT22;5183;51.190;6.820;2023-04-01T04:10:22;9.20;99.90
10276;DHT22;5183;51.190;6.820;2023-04-01T04:12:50;9.20;99.90
10276;DHT22;5183;51.190;6.820;2023-04-01T04:15:17;9.20;99.90
10276;DHT22;5183;51.190;6.820;2023-04-01T04:17:44;9.20;99.90
10276;DHT22;5183;51.190;6.820;2023-04-01T04:20:11;9.20;99.90
10276;DHT22;5183;51.190;6.820;2023-04-01T04:22:38;9.30;99.90
10276;DHT22;5183;51.190;6.820;2023-04-01T04:25:05;9.20;99.90
10276;DHT22;5183;51.190;6.820;2023-04-01T04:27:34;9.30;99.90
10276;DHT22;5183;51.190;6.820;2023-04-01T04:30:02;9.20;99.90
10276;DHT22;5183;51.190;6.820;2023-04-01T04:32:30;9.20;99.90
10276;DHT22;5183;51.190;6.820;2023-04-01T04:34:57;9.20;99.90
10276;DHT22;5183;51.190;6.820;2023-04-01T04:37:23;9.20;99.90
10276;DHT22;5183;51.190;6.820;2023-04-01T04:39:51;9.30;99.90
10276;DHT22;5183;51.190;6.820;2023-04-01T04:42:18;9.20;99.90
10276;DHT22;5183;51.190;6.820;2023-04-01T04:44:46;9.20;99.90
10276;DHT22;5183;51.190;6.820;2023-04-01T04:47:13;9.20;99.90
10276;DHT22;5183;51.190;6.820;2023-04-01T04:49:39;9.20;99.90
10276;DHT22;5183;51.190;6.820;2023-04-01T04:52:06;9.20;99.90
10276;DHT22;5183;51.190;6.820;2023-04-01T04:54:33;9.20;99.90
10276;DHT22;5183;51.190;6.820;2023-04-01T04:57:00;9.20;99.90
10276;DHT22;5183;51.190;6.820;2023-04-01T04:59:27;9.10;99.90
10276;DHT22;5183;51.190;6.820;2023-04-01T05:01:55;9.20;99.90
10276;DHT22;5183;51.190;6.820;2023-04-01T05:04:22;9.20;99.90
10276;DHT22;5183;51.190;6.820;2023-04-01T05:06:49;9.20;99.90
10276;DHT22;5183;51.190;6.820;2023-04-01T05:09:17;9.20;99.90
10276;DHT22;5183;51.190;6.820;2023-04-01T05:11:44;9.20;99.90
10276;DHT22;5183;51.190;6.820;2023-04-01T05:14:15;9.20;99.90
10276;DHT22;5183;51.190;6.820;2023-04-01T05:16:42;9.10;99.90
10276;DHT22;5183;51.190;6.820;2023-04-01T05:19:10;9.20;99.90
10276;DHT22;5183;51.190;6.820;2023-04-01T05:21:37;9.20;99.90
10276;DHT22;5183;51.190;6.820;2023-04-01T05:24:07;9.20;99.90
10276;DHT22;5183;51.190;6.820;2023-04-01T05:26:34;9.10;99.90
10276;DHT22;5183;51.190;6.820;2023-04-01T05:29:02;9.10;99.90
10276;DHT22;5183;51.190;6.820;2023-04-01T05:31:29;9.10;99.90
10276;DHT22;5183;51.190;6.820;2023-04-01T05:33:56;9.10;99.90
10276;DHT22;5183;51.190;6.820;2023-04-01T05:36:24;9.10;99.90
10276;DHT22;5183;51.190;6.820;2023-04-01T05:38:54;9.10;99.90
10276;DHT22;5183;51.190;6.820;2023-04-01T05:41:21;9.10;99.90
10276;DHT22;5183;51.190;6.820;2023-04-01T05:43:47;9.10;99.90
10276;DHT22;5183;51.190;6.820;2023-04-01T05:46:14;9.10;99.90
10276;DHT22;5183;51.190;6.820;2023-04-01T05:48:44;9.10;99.90
10276;DHT22;5183;51.190;6.820;2023-04-01T05:51:12;9.10;99.90
10276;DHT22;5183;51.190;6.820;2023-04-01T05:53:41;9.10;99.90
10276;DHT22;5183;51.190;6.820;2023-04-01T05:56:08;9.10;99.90
10276;DHT22;5183;51.190;6.820;2023-04-01T05:58:36;9.10;99.90
10276;DHT22;5183;51.190;6.820;2023-04-01T06:01:05;9.10;99.90
10276;DHT22;5183;51.190;6.820;2023-04-01T06:03:32;9.10;99.90
10276;DHT22;5183;51.190;6.820;2023-04-01T06:05:59;9.10;99.90
10276;DHT22;5183;51.190;6.820;2023-04-01T06:08:27;9.10;99.90
10276;DHT22;5183;51.190;6.820;2023-04-01T06:11:07;9.10;99.90
10276;DHT22;5183;51.190;6.820;2023-04-01T06:14:06;9.10;99.90
10276;DHT22;5183;51.190;6.820;2023-04-01T06:16:44;9.10;99.90
10276;DHT22;5183;51.190;6.820;2023-04-01T06:19:32;9.10;99.90
10276;DHT22;5183;51.190;6.820;2023-04-01T06:22:27;9.10;99.90
10276;DHT22;5183;51.190;6.820;2023-04-01T06:28:14;9.10;99.90
10276;DHT22;5183;51.190;6.820;2023-04-01T06:30:50;9.10;99.90
10276;DHT22;5183;51.190;6.820;2023-04-01T06:33:32;9.20;99.90
10276;DHT22;5183;51.190;6.820;2023-04-01T06:39:22;9.10;99.90
10276;DHT22;5183;51.190;6.820;2023-04-01T06:45:11;9.10;99.90
10276;DHT22;5183;51.190;6.820;2023-04-01T06:47:52;9.20;99.90
10276;DHT22;5183;51.190;6.820;2023-04-01T06:50:26;9.20;99.90
10276;DHT22;5183;51.190;6.820;2023-04-01T06:53:00;9.20;99.90
10276;DHT22;5183;51.190;6.820;2023-04-01T06:55:34;9.20;99.90
10276;DHT22;5183;51.190;6.820;2023-04-01T06:58:06;9.20;99.90
10276;DHT22;5183;51.190;6.820;2023-04-01T07:00:40;9.20;99.90
10276;DHT22;5183;51.190;6.820;2023-04-01T07:03:18;9.20;99.90
10276;DHT22;5183;51.190;6.820;2023-04-01T07:05:47;9.20;99.90
10276;DHT22;5183;51.190;6.820;2023-04-01T07:08:18;9.20;99.90
10276;DHT22;5183;51.190;6.820;2023-04-01T07:10:49;9.30;99.90
10276;DHT22;5183;51.190;6.820;2023-04-01T07:13:21;9.20;99.90
10276;DHT22;5183;51.190;6.820;2023-04-01T07:15:58;9.20;99.90
10276;DHT22;5183;51.190;6.820;2023-04-01T07:18:32;9.30;99.90
10276;DHT22;5183;51.190;6.820;2023-04-01T07:21:01;9.20;99.90
10276;DHT22;5183;51.190;6.820;2023-04-01T07:23:32;9.30;99.90
10276;DHT22;5183;51.190;6.820;2023-04-01T07:26:10;9.30;99.90
10276;DHT22;5183;51.190;6.820;2023-04-01T07:28:41;9.30;99.90
10276;DHT22;5183;51.190;6.820;2023-04-01T07:31:18;9.30;99.90
10276;DHT22;5183;51.190;6.820;2023-04-01T07:33:52;9.30;99.90
10276;DHT22;5183;51.190;6.820;2023-04-01T07:36:26;9.30;99.90
10276;DHT22;5183;51.190;6.820;2023-04-01T07:39:02;9.50;99.90
10276;DHT22;5183;51.190;6.820;2023-04-01T07:41:38;9.30;99.90
10276;DHT22;5183;51.190;6.820;2023-04-01T07:44:16;9.30;99.90
10276;DHT22;5183;51.190;6.820;2023-04-01T07:47:01;9.30;99.90
10276;DHT22;5183;51.190;6.820;2023-04-01T07:49:41;9.30;99.90
10276;DHT22;5183;51.190;6.820;2023-04-01T07:52:18;9.30;99.90
10276;DHT22;5183;51.190;6.820;2023-04-01T07:54:51;9.30;99.90
10276;DHT22;5183;51.190;6.820;2023-04-01T07:57:23;9.30;99.90
10276;DHT22;5183;51.190;6.820;2023-04-01T07:59:58;9.30;99.90
10276;DHT22;5183;51.190;6.820;2023-04-01T08:02:36;9.30;99.90
10276;DHT22;5183;51.190;6.820;2023-04-01T08:05:19;9.30;99.90
10276;DHT22;5183;51.190;6.820;2023-04-01T08:07:54;9.30;99.90
10276;DHT22;5183;51.190;6.820;2023-04-01T08:10:27;9.30;99.90
10276;DHT22;5183;51.190;6.820;2023-04-01T08:13:05;9.30;99.90
10276;DHT22;5183;51.190;6.820;2023-04-01T08:15:41;9.20;99.90
10276;DHT22;5183;51.190;6.820;2023-04-01T08:18:20;9.30;99.90
10276;DHT22;5183;51.190;6.820;2023-04-01T08:20:52;9.30;99.90
10276;DHT22;5183;51.190;6.820;2023-04-01T08:23:24;9.30;99.90
10276;DHT22;5183;51.190;6.820;2023-04-01T08:25:56;9.30;99.90
10276;DHT22;5183;51.190;6.820;2023-04-01T08:28:27;9.40;99.90
10276;DHT22;5183;51.190;6.820;2023-04-01T08:31:00;9.40;99.90
10276;DHT22;5183;51.190;6.820;2023-04-01T08:33:31;9.40;99.90
10276;DHT22;5183;51.190;6.820;2023-04-01T08:36:03;9.50;99.90
10276;DHT22;5183;51.190;6.820;2023-04-01T08:38:33;9.50;99.90
10276;DHT22;5183;51.190;6.820;2023-04-01T08:41:20;9.50;99.90
10276;DHT22;5183;51.190;6.820;2023-04-01T08:44:18;9.40;99.90
10276;DHT22;5183;51.190;6.820;2023-04-01T08:46:58;9.50;99.90
10276;DHT22;5183;51.190;6.820;2023-04-01T08:49:49;9.50;99.90
10276;DHT22;5183;51.190;6.820;2023-04-01T08:52:33;9.40;99.90
10276;DHT22;5183;51.190;6.820;2023-04-01T08:55:38;9.50;99.90
10276;DHT22;5183;51.190;6.820;2023-04-01T08:58:42;9.50;99.90
10276;DHT22;5183;51.190;6.820;2023-04-01T09:01:20;9.50;99.90
10276;DHT22;5183;51.190;6.820;2023-04-01T09:07:10;9.60;99.90
10276;DHT22;5183;51.190;6.820;2023-04-01T09:12:59;9.60;99.90
10276;DHT22;5183;51.190;6.820;2023-04-01T09:15:51;9.60;99.90
10276;DHT22;5183;51.190;6.820;2023-04-01T09:21:57;9.60;99.90
10276;DHT22;5183;51.190;6.820;2023-04-01T09:24:58;9.50;99.90
10276;DHT22;5183;51.190;6.820;2023-04-01T09:27:29;9.50;99.90
10276;DHT22;5183;51.190;6.820;2023-04-01T09:30:28;9.50;99.90
10276;DHT22;5183;51.190;6.820;2023-04-01T09:33:24;9.50;99.90
10276;DHT22;5183;51.190;6.820;2023-04-01T09:36:04;9.50;99.90
10276;DHT22;5183;51.190;6.820;2023-04-01T09:38:43;9.50;99.90
10276;DHT22;5183;51.190;6.820;2023-04-01T09:41:19;9.40;99.90
10276;DHT22;5183;51.190;6.820;2023-04-01T09:44:00;9.50;99.90
10276;DHT22;5183;51.190;6.820;2023-04-01T09:46:39;9.40;99.90
10276;DHT22;5183;51.190;6.820;2023-04-01T09:49:40;9.50;99.90
10276;DHT22;5183;51.190;6.820;2023-04-01T09:52:26;9.50;99.90
10276;DHT22;5183;51.190;6.820;2023-04-01T09:55:21;9.50;99.90
10276;DHT22;5183;51.190;6.820;2023-04-01T10:04:24;9.50;99.90
10276;DHT22;5183;51.190;6.820;2023-04-01T10:07:33;9.60;99.90
10276;DHT22;5183;51.190;6.820;2023-04-01T10:16:32;9.70;99.90
10276;DHT22;5183;51.190;6.820;2023-04-01T10:19:30;9.70;99.90
10276;DHT22;5183;51.190;6.820;2023-04-01T10:22:26;9.70;99.90
10276;DHT22;5183;51.190;6.820;2023-04-01T10:28:06;9.70;99.90
10276;DHT22;5183;51.190;6.820;2023-04-01T10:34:05;9.80;99.90
10276;DHT22;5183;51.190;6.820;2023-04-01T10:36:52;9.80;99.90
10276;DHT22;5183;51.190;6.820;2023-04-01T10:43:09;9.80;99.90
10276;DHT22;5183;51.190;6.820;2023-04-01T10:49:16;9.80;99.90
10276;DHT22;5183;51.190;6.820;2023-04-01T10:52:12;9.80;99.90
10276;DHT22;5183;51.190;6.820;2023-04-01T10:54:46;9.80;99.90
10276;DHT22;5183;51.190;6.820;2023-04-01T10:57:40;9.80;99.90
10276;DHT22;5183;51.190;6.820;2023-04-01T11:00:55;9.90;99.90
10276;DHT22;5183;51.190;6.820;2023-04-01T11:10:04;10.00;99.90
10276;DHT22;5183;51.190;6.820;2023-04-01T11:13:02;9.90;99.90
10276;DHT22;5183;51.190;6.820;2023-04-01T11:16:00;9.90;99.90
10276;DHT22;5183;51.190;6.820;2023-04-01T11:19:23;10.00;99.90
10276;DHT22;5183;51.190;6.820;2023-04-01T11:22:32;10.00;99.90
10276;DHT22;5183;51.190;6.820;2023-04-01T11:25:20;10.00;99.90
10276;DHT22;5183;51.190;6.820;2023-04-01T11:28:10;10.00;99.90
10276;DHT22;5183;51.190;6.820;2023-04-01T11:31:04;10.00;99.90
10276;DHT22;5183;51.190;6.820;2023-04-01T11:33:42;10.00;99.90
10276;DHT22;5183;51.190;6.820;2023-04-01T11:36:17;9.90;99.90
10276;DHT22;5183;51.190;6.820;2023-04-01T11:39:00;9.90;99.90
10276;DHT22;5183;51.190;6.820;2023-04-01T11:41:35;9.90;99.90
10276;DHT22;5183;51.190;6.820;2023-04-01T11:44:15;9.90;99.90
10276;DHT22;5183;51.190;6.820;2023-04-01T11:46:52;9.90;99.90
10276;DHT22;5183;51.190;6.820;2023-04-01T11:49:36;10.00;99.90
10276;DHT22;5183;51.190;6.820;2023-04-01T11:52:25;10.00;99.90
10276;DHT22;5183;51.190;6.820;2023-04-01T11:55:10;10.00;99.90
10276;DHT22;5183;51.190;6.820;2023-04-01T11:57:54;9.60;99.90
10276;DHT22;5183;51.190;6.820;2023-04-01T12:00:35;10.00;99.90
10276;DHT22;5183;51.190;6.820;2023-04-01T12:03:18;10.00;99.90
10276;DHT22;5183;51.190;6.820;2023-04-01T12:05:51;10.00;99.90
10276;DHT22;5183;51.190;6.820;2023-04-01T12:08:31;10.00;99.90
10276;DHT22;5183;51.190;6.820;2023-04-01T12:11:08;10.10;99.90
10276;DHT22;5183;51.190;6.820;2023-04-01T12:13:44;10.10;99.90
10276;DHT22;5183;51.190;6.820;2023-04-01T12:16:29;10.10;99.90
10276;DHT22;5183;51.190;6.820;2023-04-01T12:19:10;10.10;99.90
10276;DHT22;5183;51.190;6.820;2023-04-01T12:21:43;10.10;99.90
10276;DHT22;5183;51.190;6.820;2023-04-01T12:33:33;10.20;99.90
10276;DHT22;5183;51.190;6.820;2023-04-01T12:36:10;10.20;99.90
10276;DHT22;5183;51.190;6.820;2023-04-01T12:38:48;10.20;99.90
10276;DHT22;5183;51.190;6.820;2023-04-01T12:41:23;10.20;99.90
10276;DHT22;5183;51.190;6.820;2023-04-01T12:44:12;10.20;99.90
10276;DHT22;5183;51.190;6.820;2023-04-01T12:46:57;10.30;99.90
10276;DHT22;5183;51.190;6.820;2023-04-01T12:49:54;10.30;99.90
10276;DHT22;5183;51.190;6.820;2023-04-01T12:52:30;10.30;99.90
10276;DHT22;5183;51.190;6.820;2023-04-01T12:55:35;10.30;99.90
10276;DHT22;5183;51.190;6.820;2023-04-01T12:58:42;10.30;99.90
10276;DHT22;5183;51.190;6.820;2023-04-01T13:01:30;10.30;99.90
10276;DHT22;5183;51.190;6.820;2023-04-01T13:04:23;10.20;99.90
10276;DHT22;5183;51.190;6.820;2023-04-01T13:07:15;10.30;99.90
10276;DHT22;5183;51.190;6.820;2023-04-01T13:09:53;10.30;99.90
10276;DHT22;5183;51.190;6.820;2023-04-01T13:12:34;10.30;99.90
10276;DHT22;5183;51.190;6.820;2023-04-01T13:15:25;10.30;99.90
10276;DHT22;5183;51.190;6.820;2023-04-01T13:18:01;10.30;99.90
10276;DHT22;5183;51.190;6.820;2023-04-01T13:20:40;10.30;99.90
10276;DHT22;5183;51.190;6.820;2023-04-01T13:23:19;10.40;99.90
10276;DHT22;5183;51.190;6.820;2023-04-01T13:25:53;10.40;99.90
10276;DHT22;5183;51.190;6.820;2023-04-01T13:28:25;10.40;99.90
10276;DHT22;5183;51.190;6.820;2023-04-01T13:31:02;10.50;99.90
10276;DHT22;5183;51.190;6.820;2023-04-01T13:33:38;10.50;99.90
10276;DHT22;5183;51.190;6.820;2023-04-01T13:36:18;10.50;99.90
10276;DHT22;5183;51.190;6.820;2023-04-01T13:39:06;10.70;99.90
10276;DHT22;5183;51.190;6.820;2023-04-01T13:41:47;10.60;99.90
10276;DHT22;5183;51.190;6.820;2023-04-01T13:44:19;10.60;99.90
10276;DHT22;5183;51.190;6.820;2023-04-01T13:47:00;10.50;99.90
10276;DHT22;5183;51.190;6.820;2023-04-01T13:49:53;10.60;99.90
10276;DHT22;5183;51.190;6.820;2023-04-01T13:52:33;10.50;99.90
10276;DHT22;5183;51.190;6.820;2023-04-01T13:55:15;10.50;99.90
10276;DHT22;5183;51.190;6.820;2023-04-01T13:58:12;10.50;99.90
10276;DHT22;5183;51.190;6.820;2023-04-01T14:00:50;10.50;99.90
10276;DHT22;5183;51.190;6.820;2023-04-01T14:03:30;10.40;99.90
10276;DHT22;5183;51.190;6.820;2023-04-01T14:06:09;10.40;99.90
10276;DHT22;5183;51.190;6.820;2023-04-01T14:08:54;10.40;99.90
10276;DHT22;5183;51.190;6.820;2023-04-01T14:11:29;10.40;99.90
10276;DHT22;5183;51.190;6.820;2023-04-01T14:14:05;10.40;99.90
10276;DHT22;5183;51.190;6.820;2023-04-01T14:17:14;10.40;99.90
10276;DHT22;5183;51.190;6.820;2023-04-01T14:20:13;10.40;99.90
10276;DHT22;5183;51.190;6.820;2023-04-01T14:22:52;10.40;99.90
10276;DHT22;5183;51.190;6.820;2023-04-01T14:25:39;10.40;99.90
10276;DHT22;5183;51.190;6.820;2023-04-01T14:28:18;10.40;99.90
10276;DHT22;5183;51.190;6.820;2023-04-01T14:31:00;10.50;99.90
10276;DHT22;5183;51.190;6.820;2023-04-01T14:33:38;10.50;99.90
10276;DHT22;5183;51.190;6.820;2023-04-01T14:36:29;10.50;99.90
10276;DHT22;5183;51.190;6.820;2023-04-01T14:39:14;10.50;99.90
10276;DHT22;5183;51.190;6.820;2023-04-01T14:41:47;10.50;99.90
10276;DHT22;5183;51.190;6.820;2023-04-01T14:47:15;10.60;99.90
10276;DHT22;5183;51.190;6.820;2023-04-01T14:49:47;10.70;99.90
10276;DHT22;5183;51.190;6.820;2023-04-01T14:52:21;10.80;99.90
10276;DHT22;5183;51.190;6.820;2023-04-01T14:54:51;10.80;99.90
10276;DHT22;5183;51.190;6.820;2023-04-01T14:57:23;11.00;99.90
10276;DHT22;5183;51.190;6.820;2023-04-01T14:59:53;10.90;99.90
10276;DHT22;5183;51.190;6.820;2023-04-01T15:02:49;10.90;99.90
10276;DHT22;5183;51.190;6.820;2023-04-01T15:05:27;10.90;99.90
10276;DHT22;5183;51.190;6.820;2023-04-01T15:08:05;10.80;99.90
10276;DHT22;5183;51.190;6.820;2023-04-01T15:13:39;10.70;99.90
10276;DHT22;5183;51.190;6.820;2023-04-01T15:16:19;10.60;99.90
10276;DHT22;5183;51.190;6.820;2023-04-01T15:18:55;10.60;99.90
10276;DHT22;5183;51.190;6.820;2023-04-01T15:24:22;10.50;99.90
10276;DHT22;5183;51.190;6.820;2023-04-01T15:30:13;10.50;99.90
10276;DHT22;5183;51.190;6.820;2023-04-01T15:35:38;10.40;99.90
10276;DHT22;5183;51.190;6.820;2023-04-01T15:38:10;10.30;99.90
10276;DHT22;5183;51.190;6.820;2023-04-01T15:40:45;10.30;99.90
10276;DHT22;5183;51.190;6.820;2023-04-01T15:43:24;10.30;99.90
10276;DHT22;5183;51.190;6.820;2023-04-01T15:45:58;10.20;99.90
10276;DHT22;5183;51.190;6.820;2023-04-01T15:48:46;10.10;99.90
10276;DHT22;5183;51.190;6.820;2023-04-01T15:51:27;10.20;99.90
10276;DHT22;5183;51.190;6.820;2023-04-01T15:57:21;10.10;99.90
10276;DHT22;5183;51.190;6.820;2023-04-01T16:00:06;10.10;99.90
10276;DHT22;5183;51.190;6.820;2023-04-01T16:02:42;10.00;99.90
10276;DHT22;5183;51.190;6.820;2023-04-01T16:05:28;10.00;99.90
10276;DHT22;5183;51.190;6.820;2023-04-01T16:11:02;10.00;99.90
10276;DHT22;5183;51.190;6.820;2023-04-01T16:13:44;10.00;99.90
10276;DHT22;5183;51.190;6.820;2023-04-01T16:16:24;9.90;99.90
10276;DHT22;5183;51.190;6.820;2023-04-01T16:19:07;10.00;99.90
10276;DHT22;5183;51.190;6.820;2023-04-01T16:21:44;10.00;99.90
10276;DHT22;5183;51.190;6.820;2023-04-01T16:24:17;10.00;99.90
10276;DHT22;5183;51.190;6.820;2023-04-01T16:26:50;10.00;99.90
10276;DHT22;5183;51.190;6.820;2023-04-01T16:29:26;9.90;99.90
10276;DHT22;5183;51.190;6.820;2023-04-01T16:32:05;9.90;99.90
10276;DHT22;5183;51.190;6.820;2023-04-01T16:34:38;9.90;99.90
10276;DHT22;5183;51.190;6.820;2023-04-01T16:37:08;9.90;99.90
10276;DHT22;5183;51.190;6.820;2023-04-01T16:39:44;9.90;99.90
10276;DHT22;5183;51.190;6.820;2023-04-01T16:42:35;9.90;99.90
10276;DHT22;5183;51.190;6.820;2023-04-01T16:45:24;9.90;99.90
10276;DHT22;5183;51.190;6.820;2023-04-01T16:48:00;9.90;99.90
10276;DHT22;5183;51.190;6.820;2023-04-01T16:50:37;9.80;99.90
10276;DHT22;5183;51.190;6.820;2023-04-01T16:53:10;9.80;99.90
10276;DHT22;5183;51.190;6.820;2023-04-01T16:55:49;9.90;99.90
10276;DHT22;5183;51.190;6.820;2023-04-01T16:58:23;9.80;99.90
10276;DHT22;5183;51.190;6.820;2023-04-01T17:00:53;9.80;99.90
10276;DHT22;5183;51.190;6.820;2023-04-01T17:03:27;9.90;99.90
10276;DHT22;5183;51.190;6.820;2023-04-01T17:06:12;9.80;99.90
10276;DHT22;5183;51.190;6.820;2023-04-01T17:08:58;9.80;99.90
10276;DHT22;5183;51.190;6.820;2023-04-01T17:11:28;9.80;99.90
10276;DHT22;5183;51.190;6.820;2023-04-01T17:14:04;9.70;99.90
10276;DHT22;5183;51.190;6.820;2023-04-01T17:16:52;9.70;99.90
10276;DHT22;5183;51.190;6.820;2023-04-01T17:19:37;9.70;99.90
10276;DHT22;5183;51.190;6.820;2023-04-01T17:22:18;9.70;99.90
10276;DHT22;5183;51.190;6.820;2023-04-01T17:24:58;9.60;99.90
10276;DHT22;5183;51.190;6.820;2023-04-01T17:27:39;9.70;99.90
10276;DHT22;5183;51.190;6.820;2023-04-01T17:30:16;9.70;99.90
10276;DHT22;5183;51.190;6.820;2023-04-01T17:32:53;9.60;99.90
10276;DHT22;5183;51.190;6.820;2023-04-01T17:35:27;9.60;99.90
10276;DHT22;5183;51.190;6.820;2023-04-01T17:38:08;9.60;99.90
10276;DHT22;5183;51.190;6.820;2023-04-01T17:40:48;9.60;99.90
10276;DHT22;5183;51.190;6.820;2023-04-01T17:43:25;9.60;99.90
10276;DHT22;5183;51.190;6.820;2023-04-01T17:45:57;9.60;99.90
10276;DHT22;5183;51.190;6.820;2023-04-01T17:48:31;9.60;99.90
10276;DHT22;5183;51.190;6.820;2023-04-01T17:51:14;9.60;99.90
10276;DHT22;5183;51.190;6.820;2023-04-01T17:53:49;9.60;99.90
10276;DHT22;5183;51.190;6.820;2023-04-01T17:56:24;9.60;99.90
10276;DHT22;5183;51.190;6.820;2023-04-01T17:59:02;9.60;99.90
10276;DHT22;5183;51.190;6.820;2023-04-01T18:01:42;9.60;99.90
10276;DHT22;5183;51.190;6.820;2023-04-01T18:04:35;9.60;99.90
10276;DHT22;5183;51.190;6.820;2023-04-01T18:07:30;9.50;99.90
10276;DHT22;5183;51.190;6.820;2023-04-01T18:10:17;9.60;99.90
10276;DHT22;5183;51.190;6.820;2023-04-01T18:13:04;9.50;99.90
10276;DHT22;5183;51.190;6.820;2023-04-01T18:15:38;9.60;99.90
10276;DHT22;5183;51.190;6.820;2023-04-01T18:18:25;9.60;99.90
10276;DHT22;5183;51.190;6.820;2023-04-01T18:21:02;9.50;99.90
10276;DHT22;5183;51.190;6.820;2023-04-01T18:23:41;9.50;99.90
10276;DHT22;5183;51.190;6.820;2023-04-01T18:26:13;9.50;99.90